Thunder radar more information blitzortung!


Radar de pluja more information rain snow radar


Visita la nostra xarxa de llocs de meteo:

Template documentation
and downloads

And another site



No particular awareness of the weather is required.    There are no Weather-warnings

Pagina Historial Weather Underground text

Diari Resum January 4, 2016 Unitats:  Mètric    Imperial   Tant
« Previous Dia
SegĂźent Dia »
Diari Setmana Mensual Anual Personalitzada
  Maxima: Minima: Media:
Temperatura: 13.8 °C 9.5 °C 11.4 °C
Punt de rosada: 7.3 °C 5.4 °C 6.4 °C
Humitat: 84 % 63 % 72 %
Wind Speed: 13.0 km/h 0.0 km/h 5.4 km/h
RĂ fegues de vent: 13.0 km/h - -
Vent:- - WSW
Pression baro: 1006.0 hPa 940.0 hPa -
Precipitacions: 1.0 mm    
Historical Graphs
 
 
Dades de taula per January 4, 2016
Temps Temperatura Punt de rosada Pression baro Vent Wind Speed RĂ fegues de vent Humitat Rainfall Rate (Hourly)
11:22 13.5 °C 7.3 °C 1006.0 hPa West 5.6 km/h 5.6 km/h 66 % 0.0 mm
11:23 13.5 °C 7.3 °C 1006.0 hPa West 5.6 km/h 5.6 km/h 66 % 0.0 mm
11:28 13.8 °C 7.3 °C 1006.0 hPa West 11.1 km/h 11.1 km/h 65 % 0.0 mm
11:33 13.8 °C 7.3 °C 1006.0 hPa WSW 7.4 km/h 7.4 km/h 65 % 0.0 mm
11:38 13.7 °C 7.2 °C 1006.0 hPa West 4.7 km/h 4.7 km/h 65 % 0.0 mm
11:43 13.5 °C 7.1 °C 1006.0 hPa WNW 5.6 km/h 5.6 km/h 65 % 0.0 mm
11:48 13.4 °C 6.9 °C 1006.0 hPa West 3.7 km/h 3.7 km/h 65 % 0.0 mm
11:53 13.3 °C 6.8 °C 1006.0 hPa WNW 4.2 km/h 4.2 km/h 65 % 0.0 mm
11:58 13.2 °C 6.6 °C 1005.0 hPa West 9.3 km/h 9.3 km/h 64 % 0.0 mm
12:03 13.1 °C 6.7 °C 1005.0 hPa West 7.4 km/h 7.4 km/h 65 % 0.0 mm
12:08 13.0 °C 6.6 °C 1005.0 hPa SW 1.9 km/h 2.6 km/h 65 % 0.0 mm
12:13 13.0 °C 6.6 °C 1003.9 hPa NNE 3.5 km/h   65 % 0.0 mm
12:18 13.0 °C 6.6 °C 1003.9 hPa WSW 5.6 km/h 5.6 km/h 65 % 0.0 mm
12:23 13.0 °C 6.6 °C 1003.9 hPa WNW 5.6 km/h 5.6 km/h 65 % 0.0 mm
12:28 12.9 °C 6.2 °C 1002.9 hPa WSW 7.4 km/h 7.4 km/h 64 % 0.0 mm
12:33 13.0 °C 6.3 °C 1002.9 hPa WSW 9.3 km/h 9.3 km/h 64 % 0.0 mm
12:38 12.9 °C 6.2 °C 1002.9 hPa WSW 7.4 km/h 7.4 km/h 64 % 0.0 mm
12:43 12.9 °C 6.2 °C 1003.9 hPa WSW 1.9 km/h 3.5 km/h 64 % 0.0 mm
12:48 12.9 °C 6.2 °C 1003.9 hPa West 3.7 km/h 3.7 km/h 64 % 0.0 mm
12:53 13.0 °C 6.3 °C 1003.9 hPa West 5.0 km/h 5.0 km/h 64 % 0.0 mm
12:58 13.0 °C 6.3 °C 1003.9 hPa WSW 3.9 km/h 3.9 km/h 64 % 0.0 mm
13:03 13.0 °C 6.3 °C 1003.9 hPa WSW 3.7 km/h 3.7 km/h 64 % 0.0 mm
13:08 13.1 °C 6.4 °C 1003.9 hPa SW 3.7 km/h 3.7 km/h 64 % 0.0 mm
13:13 13.1 °C 6.4 °C 1002.9 hPa WSW 5.6 km/h 5.6 km/h 64 % 0.0 mm
13:18 13.2 °C 6.6 °C 1002.9 hPa SW 4.7 km/h 4.7 km/h 64 % 0.0 mm
13:23 13.2 °C 6.6 °C 1002.9 hPa SW 1.9 km/h 2.3 km/h 64 % 0.0 mm
13:28 13.2 °C 6.6 °C 1002.9 hPa ENE 3.7 km/h 3.7 km/h 64 % 0.0 mm
13:33 13.2 °C 6.8 °C 1002.9 hPa WSW 2.6 km/h   65 % 0.0 mm
13:38 13.2 °C 6.6 °C 1002.9 hPa South 7.4 km/h 7.4 km/h 64 % 0.0 mm
13:43 13.2 °C 6.6 °C 1002.9 hPa West 5.6 km/h 5.6 km/h 64 % 0.0 mm
13:48 13.2 °C 6.6 °C 1002.9 hPa West 5.6 km/h 5.6 km/h 64 % 0.0 mm
13:53 13.1 °C 6.2 °C 1002.9 hPa West 8.7 km/h 8.7 km/h 63 % 0.0 mm
13:58 13.1 °C 6.2 °C 1001.9 hPa WSW 6.4 km/h 6.4 km/h 63 % 0.0 mm
14:03 13.0 °C 6.1 °C 1001.9 hPa WSW 7.4 km/h 7.4 km/h 63 % 0.0 mm
14:08 13.0 °C 6.1 °C 1001.9 hPa WSW 5.6 km/h 5.6 km/h 63 % 0.0 mm
14:13 13.0 °C 6.1 °C 1001.9 hPa WSW 5.8 km/h 5.8 km/h 63 % 0.0 mm
14:18 12.8 °C 6.4 °C 1001.9 hPa WSW 5.6 km/h 5.8 km/h 65 % 0.0 mm
14:23 12.6 °C 6.2 °C 1001.9 hPa WSW 9.3 km/h 9.3 km/h 65 % 0.0 mm
14:28 12.6 °C 6.4 °C 1002.9 hPa West 7.4 km/h 7.4 km/h 66 % 0.0 mm
14:33 12.4 °C 6.4 °C 1002.9 hPa West 5.6 km/h 5.6 km/h 67 % 0.0 mm
14:38 12.4 °C 6.4 °C 1002.9 hPa WSW 5.6 km/h 5.6 km/h 67 % 0.0 mm
14:43 12.4 °C 6.7 °C 1001.9 hPa WSW 1.9 km/h   68 % 0.0 mm
14:48 12.4 °C 6.7 °C 1001.9 hPa NE 3.7 km/h 3.7 km/h 68 % 0.0 mm
14:53 12.4 °C 6.7 °C 1001.9 hPa West 1.9 km/h 2.6 km/h 68 % 0.0 mm
14:58 12.4 °C 6.9 °C 1000.9 hPa SW 4.2 km/h 4.2 km/h 69 % 0.0 mm
15:03 12.3 °C 6.6 °C 1000.9 hPa WSW 7.4 km/h 7.4 km/h 68 % 0.0 mm
15:08 12.3 °C 6.6 °C 1000.9 hPa SSE 3.9 km/h 3.9 km/h 68 % 0.0 mm
15:13 12.2 °C 6.4 °C 1001.9 hPa NNE 1.9 km/h 3.2 km/h 68 % 0.0 mm
15:19 12.2 °C 6.4 °C 1001.9 hPa SW 5.0 km/h 5.0 km/h 68 % 0.0 mm
15:24 12.1 °C 6.4 °C 1001.9 hPa WSW 4.2 km/h 4.2 km/h 68 % 0.0 mm
15:29 12.1 °C 6.4 °C 1000.9 hPa WSW 4.2 km/h 4.2 km/h 68 % 0.0 mm
15:34 12.1 °C 6.4 °C 1000.9 hPa West 5.3 km/h 5.3 km/h 68 % 0.0 mm
15:39 12.1 °C 6.4 °C 1000.9 hPa West 2.3 km/h 2.3 km/h 68 % 0.0 mm
15:44 12.1 °C 6.4 °C 1000.9 hPa WSW 6.1 km/h 6.1 km/h 68 % 0.0 mm
15:49 12.1 °C 6.4 °C 1000.9 hPa West 7.6 km/h 7.6 km/h 68 % 0.0 mm
15:54 12.1 °C 6.4 °C 1000.9 hPa WSW 3.7 km/h 3.7 km/h 68 % 0.0 mm
15:59 12.0 °C 6.5 °C 1001.9 hPa WSW 5.6 km/h 5.6 km/h 69 % 0.0 mm
16:04 11.9 °C 6.4 °C 1001.9 hPa West 1.9 km/h   69 % 0.0 mm
16:09 11.9 °C 6.4 °C 1001.9 hPa NW 1.9 km/h 1.9 km/h 69 % 0.0 mm
16:14 11.8 °C 6.3 °C 1001.9 hPa WSW 4.2 km/h   69 % 0.0 mm
16:19 11.8 °C 6.3 °C 1001.9 hPa West 5.6 km/h 5.6 km/h 69 % 0.0 mm
16:24 11.8 °C 6.3 °C 1001.9 hPa West 3.7 km/h 3.7 km/h 69 % 0.0 mm
16:29 11.8 °C 6.3 °C 1000.9 hPa WNW 3.7 km/h 3.7 km/h 69 % 0.0 mm
16:34 11.7 °C 6.4 °C 1000.9 hPa WSW 3.7 km/h 3.7 km/h 70 % 0.0 mm
16:39 11.7 °C 6.4 °C 1000.9 hPa West 3.7 km/h 3.7 km/h 70 % 0.0 mm
16:44 11.6 °C 6.3 °C 1001.9 hPa SW 3.7 km/h 3.7 km/h 70 % 0.0 mm
16:49 11.6 °C 6.5 °C 1001.9 hPa SW 3.7 km/h 3.7 km/h 71 % 0.0 mm
16:54 11.5 °C 6.4 °C 1001.9 hPa WSW 3.7 km/h 3.7 km/h 71 % 0.0 mm
16:59 11.4 °C 6.6 °C 1000.9 hPa WSW 3.7 km/h 3.7 km/h 72 % 0.0 mm
17:04 11.3 °C 6.4 °C 1000.9 hPa West 5.8 km/h 5.8 km/h 72 % 0.0 mm
17:09 11.3 °C 6.4 °C 1000.9 hPa West 3.7 km/h 3.7 km/h 72 % 0.0 mm
17:14 11.3 °C 6.4 °C 1000.9 hPa WSW 5.6 km/h 5.6 km/h 72 % 0.0 mm
17:19 11.3 °C 6.4 °C 1000.9 hPa WSW 4.2 km/h 4.2 km/h 72 % 0.0 mm
17:24 11.3 °C 6.4 °C 1000.9 hPa WSW 7.4 km/h 7.4 km/h 72 % 0.0 mm
17:29 11.3 °C 6.4 °C 1001.9 hPa WNW 5.6 km/h 5.6 km/h 72 % 0.0 mm
17:34 11.3 °C 6.2 °C 1001.9 hPa WNW 3.7 km/h 3.7 km/h 71 % 0.0 mm
17:39 11.3 °C 6.2 °C 1001.9 hPa WSW 3.7 km/h 3.7 km/h 71 % 0.0 mm
17:44 11.2 °C 6.3 °C 1000.9 hPa WSW 3.7 km/h 3.7 km/h 72 % 0.0 mm
17:49 11.1 °C 6.2 °C 1000.9 hPa WSW 7.4 km/h 7.4 km/h 72 % 0.0 mm
17:54 11.0 °C 6.3 °C 1000.9 hPa WSW 3.7 km/h 3.7 km/h 73 % 0.0 mm
17:59 10.8 °C 6.3 °C 1001.9 hPa West 5.6 km/h 5.6 km/h 74 % 0.0 mm
18:04 10.7 °C 6.4 °C 1001.9 hPa West 3.7 km/h 3.7 km/h 75 % 0.0 mm
18:09 10.6 °C 6.3 °C 1001.9 hPa WSW 5.6 km/h 5.6 km/h 75 % 0.0 mm
18:14 10.4 °C 6.3 °C 1001.9 hPa SW 5.6 km/h 5.6 km/h 76 % 0.0 mm
18:19 10.4 °C 6.6 °C 1001.9 hPa WSW 4.7 km/h 4.7 km/h 77 % 0.0 mm
18:24 10.2 °C 6.3 °C 1001.9 hPa WSW 5.6 km/h 5.6 km/h 77 % 0.0 mm
18:29 10.1 °C 6.4 °C 1001.9 hPa WSW 3.7 km/h 3.7 km/h 78 % 0.0 mm
18:34 10.0 °C 6.3 °C 1001.9 hPa WSW 3.7 km/h 3.7 km/h 78 % 0.0 mm
18:39 10.0 °C 6.3 °C 1001.9 hPa WSW 3.7 km/h 3.7 km/h 78 % 0.0 mm
18:44 9.9 °C 6.4 °C 1000.9 hPa WSW 3.7 km/h 3.7 km/h 79 % 0.0 mm
18:49 9.9 °C 6.4 °C 1000.9 hPa SW 3.2 km/h 3.2 km/h 79 % 0.0 mm
18:54 9.8 °C 6.3 °C 1000.9 hPa SW 3.7 km/h 3.7 km/h 79 % 0.0 mm
18:59 9.7 °C 6.2 °C 999.9 hPa SW 3.7 km/h 3.7 km/h 79 % 0.0 mm
19:04 9.6 °C 6.1 °C 999.9 hPa SW 4.2 km/h 4.2 km/h 79 % 0.0 mm
19:09 9.6 °C 6.3 °C 999.9 hPa SW 6.1 km/h 6.1 km/h 80 % 0.0 mm
19:14 9.5 °C 6.4 °C 1001.9 hPa SW 5.6 km/h 5.6 km/h 81 % 0.0 mm
19:19 9.5 °C 6.6 °C 941.0 hPa SW 6.4 km/h 6.4 km/h 82 % 1.0 mm
19:24 9.5 °C 6.8 °C 941.0 hPa WSW 7.4 km/h 7.4 km/h 83 % 1.0 mm
19:29 9.6 °C 6.8 °C 940.0 hPa WSW 9.3 km/h 9.3 km/h 83 % 1.0 mm
19:34 9.6 °C 7.0 °C 940.0 hPa SW 11.1 km/h 11.1 km/h 84 % 1.0 mm
19:39 9.7 °C 7.1 °C 940.0 hPa SW 7.4 km/h 7.4 km/h 84 % 1.0 mm
19:44 9.7 °C 7.1 °C 940.0 hPa WSW 5.6 km/h 5.6 km/h 84 % 1.0 mm
19:49 9.7 °C 7.1 °C 940.0 hPa WSW 5.6 km/h 5.6 km/h 84 % 1.0 mm
19:56 9.8 °C 7.1 °C 940.0 hPa WSW 5.6 km/h 5.6 km/h 83 % 1.0 mm
20:01 9.8 °C 7.1 °C 1000.9 hPa SW 5.6 km/h 5.6 km/h 83 % 1.0 mm
20:06 9.8 °C 7.1 °C 1000.9 hPa SW 9.3 km/h 9.3 km/h 83 % 1.0 mm
20:11 9.8 °C 7.1 °C 1001.9 hPa SW 7.4 km/h 7.4 km/h 83 % 1.0 mm
20:16 9.9 °C 7.2 °C 1001.9 hPa SW 3.7 km/h 3.7 km/h 83 % 1.0 mm
20:21 9.8 °C 6.9 °C 1001.9 hPa SW 5.3 km/h   82 % 0.0 mm
20:26 10.0 °C 7.1 °C 1000.9 hPa West 7.4 km/h 7.4 km/h 82 % 0.0 mm
20:31 10.1 °C 7.0 °C 1000.9 hPa WSW 7.6 km/h 7.6 km/h 81 % 0.0 mm
20:36 10.2 °C 6.9 °C 1000.9 hPa West 5.6 km/h 6.1 km/h 80 % 0.0 mm
20:41 10.2 °C 6.7 °C 1001.9 hPa WSW 7.4 km/h 7.4 km/h 79 % 0.0 mm
20:46 10.2 °C 6.7 °C 1001.9 hPa WNW 9.3 km/h 9.3 km/h 79 % 0.0 mm
20:51 10.2 °C 6.6 °C 1001.9 hPa WSW 9.3 km/h 9.3 km/h 78 % 0.0 mm
20:56 10.2 °C 6.6 °C 1001.9 hPa WSW 7.4 km/h 7.4 km/h 78 % 0.0 mm
21:01 10.3 °C 6.4 °C 1001.9 hPa WSW 7.4 km/h 7.4 km/h 77 % 0.0 mm
21:06 10.3 °C 6.4 °C 1001.9 hPa SW 4.7 km/h 6.4 km/h 77 % 0.0 mm
21:11 10.4 °C 6.2 °C 1000.9 hPa WSW 13.0 km/h 13.0 km/h 75 % 0.0 mm
21:16 10.4 °C 6.2 °C 1000.9 hPa WNW 5.6 km/h 5.6 km/h 75 % 0.0 mm
21:21 10.4 °C 6.2 °C 1000.9 hPa WSW 5.0 km/h 6.1 km/h 75 % 0.0 mm
21:26 10.5 °C 6.3 °C 1001.9 hPa West 3.7 km/h 6.1 km/h 75 % 0.0 mm
21:31 10.5 °C 6.3 °C 1001.9 hPa WSW 7.4 km/h 7.4 km/h 75 % 0.0 mm
21:36 10.5 °C 6.1 °C 1001.9 hPa WSW 7.4 km/h 7.4 km/h 74 % 0.0 mm
21:41 10.5 °C 6.1 °C 1000.9 hPa WSW 13.0 km/h 13.0 km/h 74 % 0.0 mm
21:46 10.5 °C 6.1 °C 1000.9 hPa WNW 7.4 km/h 7.4 km/h 74 % 0.0 mm
21:51 10.5 °C 6.1 °C 1000.9 hPa SW 5.6 km/h 5.6 km/h 74 % 0.0 mm
21:56 10.5 °C 6.1 °C 1000.9 hPa WSW 5.3 km/h 5.8 km/h 74 % 0.0 mm
22:01 10.5 °C 5.9 °C 1000.9 hPa WSW 3.7 km/h 7.9 km/h 73 % 0.0 mm
22:06 10.5 °C 5.9 °C 1000.9 hPa WSW 3.7 km/h 5.3 km/h 73 % 0.0 mm
22:11 10.5 °C 5.9 °C 1001.9 hPa WSW 5.8 km/h 6.1 km/h 73 % 0.0 mm
22:16 10.4 °C 5.8 °C 1001.9 hPa WSW 9.0 km/h 9.0 km/h 73 % 0.0 mm
22:21 10.4 °C 5.6 °C 1001.9 hPa SSW 6.1 km/h 6.9 km/h 72 % 0.0 mm
22:26 10.4 °C 5.6 °C 1001.9 hPa North 7.4 km/h 7.4 km/h 72 % 0.0 mm
22:31 10.4 °C 5.8 °C 1001.9 hPa WNW 5.6 km/h 5.6 km/h 73 % 0.0 mm
22:36 10.4 °C 5.6 °C 1001.9 hPa NW 7.4 km/h 7.4 km/h 72 % 0.0 mm
22:41 10.4 °C 5.8 °C 1001.9 hPa WSW 4.7 km/h 5.8 km/h 73 % 0.0 mm
22:46 10.4 °C 5.6 °C 1001.9 hPa South 3.7 km/h 6.9 km/h 72 % 0.0 mm
22:51 10.4 °C 5.6 °C 1001.9 hPa Calm     72 % 0.0 mm
22:56 10.3 °C 5.7 °C 1001.9 hPa SSW 3.7 km/h 4.2 km/h 73 % 0.0 mm
23:01 10.3 °C 5.7 °C 1001.9 hPa SW 5.8 km/h 5.8 km/h 73 % 0.0 mm
23:06 10.3 °C 5.7 °C 1001.9 hPa SW 5.0 km/h 5.0 km/h 73 % 0.0 mm
23:16 10.2 °C 5.6 °C 1001.9 hPa SSW 3.7 km/h 3.7 km/h 73 % 0.0 mm
23:21 10.1 °C 5.5 °C 1001.9 hPa SW 1.9 km/h 3.5 km/h 73 % 0.0 mm
23:26 10.1 °C 5.5 °C 1001.9 hPa Calm   3.5 km/h 73 % 0.0 mm
23:31 10.2 °C 5.4 °C 1001.9 hPa SSW 5.0 km/h   72 % 0.0 mm
23:36 10.2 °C 5.4 °C 1001.9 hPa SSW 5.6 km/h   72 % 0.0 mm
23:41 10.2 °C 5.4 °C 1001.9 hPa SSW 5.6 km/h   72 % 0.0 mm
Meteo Sesrovires
Elogis d' Weather Underground - 3.25 mb

Guio original per  Jim McMurry - jmcmurry@mwt.net Adaptat per a la plantilla per  Wim van der Kuil - Leuven-Template.eu

Trobareu la nostra informacio del temps tambe a:

Weather Underground

AWEKAS